Aviation Digital Data Service (ADDS)

Output produced by METARs form (1406 UTC 19 January 2019)
found at http://www.aviationweather.gov/metar/data/
 
Forecast for: ZMUB (ULAN-BATOR , MG)
Text: TAF ZMUB 191030Z 1912/2018 VRB02MPS CAVOK TNM28/1923Z TXM09/2007Z
Forecast period: 1200 to 2100 UTC 19 January 2019
Forecast type: FROM: standard forecast or significant change
Winds: variable direction winds at 5 MPH (4 knots; 2.1 m/s)
Visibility: 6 or more miles 10+ km)
Ceiling: unknown
Clouds: missing
Weather: no significant weather forecast for this period
Text: BECMG 1921/1923 6000 SCT100
Forecast period: 2100 UTC 19 January 2019 to 1800 UTC 20 January 2019
Forecast type: BECOMING: Conditions expected to become as follows by 2300 UTC 19 January 2019
Winds: variable direction winds at 5 MPH (4 knots; 2.1 m/s)
Visibility: 4 miles (6 km)
Ceiling: at least 12,000 feet AGL
Clouds: scattered clouds at 10000 feet AGL
Weather: no significant weather forecast for this period